METAR Data
IDs: Format: Raw Decoded Include TAF

Data at: 1003 UTC 28 Jul 2021

KEMT 280245Z 21007KT 10SM CLR 24/16 A2996
KEMT 280150Z 20010KT 10SM CLR 26/15 A2994
KEMT 280049Z 21007KT 10SM CLR 27/15 A2993
KEMT 272345Z 20012G16KT 10SM CLR 29/15 A2993
KEMT 272245Z 21009G15KT 10SM CLR 30/17 A2994
KEMT 272145Z 21008KT 10SM CLR 30/18 A2999
KEMT 272050Z 22007KT 8SM CLR 29/18 A2997 RMK HZ ALQDS
KEMT 271946Z 18006KT 8SM CLR 28/17 A2998 RMK HZ ALQDS
KEMT 271847Z 22005KT 8SM CLR 26/17 A2999 RMK HZ ALQDS
KEMT 271745Z 24004KT 7SM CLR 24/17 A2999
KEMT 271645Z 19704KT 5SM HZ CLR 23/17 A2999
KEMT 271617Z 19005KT 4SM BR FEW013 22/17 A3000
KEMT 271545Z 20005KT 4SM BR OVC010 21/17 A3000
KEMT 271445Z 26003KT 3SM BR OVC009 19/17 A2999
KEMT 270145Z 21006KT 10SM CLR 24/17 A2992
KEMT 270045Z 20009KT 10SM CLR 25/17 A2991
KEMT 262345Z 22007KT 170V230 10SM CLR 25/18 A2993 RMK BR IN ALL QUADRANTS.
KEMT 262247Z 22007KT 8SM CLR 26/18 A2993 RMK BR IN ALL QUADRANTS.